Time;durP1;ratioP1;P1;durP2;ratioP2;P2;SDS_P1;SDS_P2;PMS_P1;PMS_P2;Temp;Humidity;BMP_temperature;BMP_pressure;BME280_temperature;BME280_humidity;BME280_pressure;Samples;Min_cycle;Max_cycle;Signal;HPM_P1;HPM_P2
2023/06/27 00:00:04;;;;;;;9.35;1.88;;;16.20;99.90;;;;;;4979293;28;20101;-82
2023/06/27 00:02:30;;;;;;;6.57;1.77;;;16.10;99.90;;;;;;4979493;28;20078;-82
2023/06/27 00:05:00;;;;;;;9.35;1.50;;;16.10;99.90;;;;;;4977915;28;20114;-78
2023/06/27 00:07:30;;;;;;;5.20;1.40;;;16.10;99.90;;;;;;4979239;28;20047;-81
2023/06/27 00:09:57;;;;;;;7.57;1.42;;;16.10;99.90;;;;;;4978779;28;20082;-79
2023/06/27 00:12:23;;;;;;;7.38;1.73;;;16.10;99.90;;;;;;4978055;28;20046;-81
2023/06/27 00:14:50;;;;;;;5.43;1.50;;;16.10;99.90;;;;;;4978611;28;20819;-82
2023/06/27 00:17:17;;;;;;;5.40;1.48;;;16.00;99.90;;;;;;4960562;28;20047;-80
2023/06/27 00:19:47;;;;;;;6.70;1.90;;;16.00;99.90;;;;;;4978349;28;20054;-82
2023/06/27 00:22:14;;;;;;;6.28;1.70;;;16.00;99.90;;;;;;4978785;28;20074;-80
2023/06/27 00:24:41;;;;;;;10.32;2.13;;;16.00;99.90;;;;;;4977355;28;20490;-80
2023/06/27 00:27:07;;;;;;;5.90;1.60;;;16.00;99.90;;;;;;4977690;28;20450;-83
2023/06/27 00:29:34;;;;;;;7.38;1.60;;;16.00;99.90;;;;;;4978668;28;20540;-82
2023/06/27 00:32:01;;;;;;;7.03;2.35;;;15.90;99.90;;;;;;4977663;28;20378;-80
2023/06/27 00:34:29;;;;;;;8.77;1.80;;;15.90;99.90;;;;;;4961394;28;20106;-82
2023/06/27 00:36:55;;;;;;;8.55;2.15;;;16.00;99.90;;;;;;4978409;28;20042;-82
2023/06/27 00:39:22;;;;;;;8.07;1.42;;;16.00;99.90;;;;;;4960617;28;20508;-82
2023/06/27 00:41:49;;;;;;;4.88;1.60;;;16.10;99.90;;;;;;4961608;28;20045;-80
2023/06/27 00:44:15;;;;;;;5.68;1.50;;;16.10;99.90;;;;;;4960656;28;20046;-82
2023/06/27 00:46:45;;;;;;;8.10;1.67;;;16.00;99.90;;;;;;4961157;28;20043;-83
2023/06/27 00:49:13;;;;;;;6.53;1.75;;;16.10;99.90;;;;;;4961151;28;20061;-83
2023/06/27 00:51:40;;;;;;;4.55;1.67;;;16.00;99.90;;;;;;4977188;28;20046;-80
2023/06/27 00:54:07;;;;;;;6.05;1.65;;;16.00;99.90;;;;;;4978158;28;20474;-82
2023/06/27 00:56:35;;;;;;;5.68;1.65;;;16.00;99.90;;;;;;4977723;28;20050;-79
2023/06/27 00:59:03;;;;;;;8.07;1.63;;;16.00;99.90;;;;;;4960294;28;20051;-79
2023/06/27 01:01:30;;;;;;;6.75;1.77;;;16.00;99.90;;;;;;4961173;28;20050;-84
2023/06/27 01:03:56;;;;;;;8.65;1.40;;;16.00;99.90;;;;;;4960436;28;20047;-83
2023/06/27 01:06:25;;;;;;;8.07;1.75;;;16.00;99.90;;;;;;4977538;28;20086;-82
2023/06/27 01:08:51;;;;;;;6.65;1.75;;;16.00;99.90;;;;;;4977797;28;20062;-80
2023/06/27 01:11:19;;;;;;;8.73;1.60;;;16.00;99.90;;;;;;4960142;28;20061;-80
2023/06/27 01:13:46;;;;;;;3.78;1.40;;;16.00;99.90;;;;;;4960878;28;20055;-82
2023/06/27 01:16:14;;;;;;;6.07;1.48;;;16.00;99.90;;;;;;4977644;28;20097;-80
2023/06/27 01:18:41;;;;;;;5.70;1.50;;;16.00;99.90;;;;;;4976700;28;20039;-81
2023/06/27 01:21:08;;;;;;;7.50;1.83;;;16.00;99.90;;;;;;4960818;28;20035;-80
2023/06/27 01:23:35;;;;;;;5.93;1.60;;;16.00;99.90;;;;;;4960398;28;20448;-81
2023/06/27 01:26:03;;;;;;;6.07;1.77;;;16.00;99.90;;;;;;4959847;28;20035;-82
2023/06/27 01:28:30;;;;;;;6.68;1.60;;;15.90;99.90;;;;;;4977537;28;20043;-82
2023/06/27 01:30:56;;;;;;;8.70;2.03;;;15.90;99.90;;;;;;4959368;28;20105;-80
2023/06/27 01:33:24;;;;;;;9.82;1.75;;;15.90;99.90;;;;;;4960349;28;20070;-79
2023/06/27 01:35:52;;;;;;;10.02;1.77;;;16.00;99.90;;;;;;4960369;28;20113;-80
2023/06/27 01:38:18;;;;;;;6.57;1.42;;;16.00;99.90;;;;;;4976520;28;20462;-79
2023/06/27 01:40:45;;;;;;;7.25;1.45;;;16.00;99.90;;;;;;4960044;28;20054;-82
2023/06/27 01:43:12;;;;;;;8.30;2.13;;;16.00;99.90;;;;;;4977484;28;20454;-82
2023/06/27 01:45:40;;;;;;;5.60;1.70;;;16.00;99.90;;;;;;4958999;28;20043;-80
2023/06/27 01:48:07;;;;;;;8.30;1.65;;;16.00;99.90;;;;;;4960577;28;20046;-83
2023/06/27 01:50:34;;;;;;;7.72;2.13;;;15.90;99.90;;;;;;4976961;28;20047;-83
2023/06/27 01:53:00;;;;;;;7.53;2.00;;;16.00;99.90;;;;;;4976588;28;20042;-83
2023/06/27 01:55:29;;;;;;;5.97;1.80;;;16.00;99.90;;;;;;4959728;28;20042;-82
2023/06/27 01:57:56;;;;;;;7.25;1.75;;;15.90;99.90;;;;;;4959138;28;20051;-80
2023/06/27 02:00:23;;;;;;;5.80;1.90;;;16.00;99.90;;;;;;4960087;28;20042;-83
2023/06/27 02:02:50;;;;;;;5.60;1.48;;;16.00;99.90;;;;;;4977096;28;20043;-80
2023/06/27 02:05:18;;;;;;;5.72;1.70;;;16.00;99.90;;;;;;4975745;28;20510;-83
2023/06/27 02:07:45;;;;;;;6.88;1.60;;;15.90;99.90;;;;;;4959655;28;20066;-83
2023/06/27 02:10:12;;;;;;;9.15;1.77;;;16.00;99.90;;;;;;4976724;28;20386;-80
2023/06/27 02:12:39;;;;;;;6.80;1.80;;;16.10;99.90;;;;;;4975887;28;20134;-81
2023/06/27 02:15:06;;;;;;;5.32;1.60;;;16.10;99.90;;;;;;4959712;28;20465;-83
2023/06/27 02:17:33;;;;;;;6.18;1.60;;;16.10;99.90;;;;;;4958916;28;20053;-81
2023/06/27 02:19:59;;;;;;;7.20;1.58;;;16.10;99.90;;;;;;4976460;28;20462;-82
2023/06/27 02:22:26;;;;;;;9.88;1.83;;;16.10;99.90;;;;;;4959463;28;20043;-80
2023/06/27 02:24:55;;;;;;;8.45;2.03;;;16.00;99.90;;;;;;4975280;28;20042;-79
2023/06/27 02:27:22;;;;;;;7.70;1.88;;;16.10;99.90;;;;;;4959874;28;20062;-82
2023/06/27 02:29:48;;;;;;;9.07;1.60;;;16.00;99.90;;;;;;4976320;28;20121;-81
2023/06/27 02:32:15;;;;;;;4.63;1.40;;;16.00;99.90;;;;;;4958665;28;20470;-82
2023/06/27 02:34:42;;;;;;;6.90;1.65;;;16.00;99.90;;;;;;4959210;28;20047;-82
2023/06/27 02:37:12;;;;;;;5.18;1.80;;;16.00;99.90;;;;;;4960260;28;20097;-80
2023/06/27 02:39:38;;;;;;;7.93;1.60;;;16.00;99.90;;;;;;4958550;28;20123;-82
2023/06/27 02:42:05;;;;;;;4.43;1.30;;;15.90;99.90;;;;;;4975957;28;20047;-80
2023/06/27 02:44:32;;;;;;;8.50;1.63;;;15.90;99.90;;;;;;4958089;28;20040;-82
2023/06/27 02:46:58;;;;;;;7.53;1.92;;;15.90;99.90;;;;;;4959166;28;20047;-82
2023/06/27 02:49:25;;;;;;;6.43;1.73;;;15.80;99.90;;;;;;4959178;28;20051;-83
2023/06/27 02:51:54;;;;;;;7.85;1.60;;;15.70;99.90;;;;;;4958447;28;20497;-80
2023/06/27 02:54:20;;;;;;;5.25;1.58;;;15.70;99.90;;;;;;4959121;28;20481;-80
2023/06/27 02:56:47;;;;;;;7.55;1.77;;;15.70;99.90;;;;;;4959262;28;20090;-84
2023/06/27 02:59:14;;;;;;;5.18;1.40;;;15.60;99.90;;;;;;4942511;28;20386;-80
2023/06/27 03:01:42;;;;;;;7.05;1.77;;;15.60;99.90;;;;;;4959334;28;20438;-83
2023/06/27 03:04:09;;;;;;;6.40;1.75;;;15.50;99.90;;;;;;4958242;28;20090;-82
2023/06/27 03:06:47;;;;;;;7.82;1.80;;;15.50;99.90;;;;;;4959489;28;20058;-80
2023/06/27 03:09:14;;;;;;;5.88;1.85;;;15.40;99.90;;;;;;4966869;28;20458;-82
2023/06/27 03:11:41;;;;;;;8.63;2.17;;;15.30;99.90;;;;;;4974310;28;20050;-81
2023/06/27 03:14:10;;;;;;;10.10;2.10;;;15.20;99.90;;;;;;4975112;28;20417;-82
2023/06/27 03:16:38;;;;;;;12.82;2.10;;;15.20;99.90;;;;;;4974980;28;20078;-83
2023/06/27 03:19:05;;;;;;;10.77;1.85;;;15.20;99.90;;;;;;4975128;28;20047;-82
2023/06/27 03:21:31;;;;;;;7.30;1.65;;;15.20;99.90;;;;;;4975966;28;20057;-81
2023/06/27 03:23:58;;;;;;;12.18;2.28;;;15.20;99.90;;;;;;4974244;28;20417;-83
2023/06/27 03:26:30;;;;;;;6.18;1.73;;;15.20;99.90;;;;;;4974560;28;20363;-83
2023/06/27 03:28:59;;;;;;;7.68;2.00;;;15.10;99.90;;;;;;4974995;28;20109;-82
2023/06/27 03:31:27;;;;;;;10.50;1.50;;;15.20;99.90;;;;;;4974126;28;20055;-84
2023/06/27 03:33:54;;;;;;;7.57;1.88;;;15.20;99.90;;;;;;4974795;28;20109;-82
2023/06/27 03:36:22;;;;;;;6.63;1.80;;;15.30;99.90;;;;;;4974663;28;20039;-83
2023/06/27 03:38:50;;;;;;;9.07;2.13;;;15.30;99.90;;;;;;4974006;28;20042;-80
2023/06/27 03:41:17;;;;;;;4.90;1.60;;;15.30;99.90;;;;;;4975367;28;20039;-81
2023/06/27 03:43:44;;;;;;;9.60;1.67;;;15.30;99.90;;;;;;4975720;28;20042;-82
2023/06/27 03:46:12;;;;;;;7.93;1.48;;;15.20;99.90;;;;;;4974028;28;20093;-83
2023/06/27 03:48:39;;;;;;;7.18;1.67;;;15.20;99.90;;;;;;4974789;28;20050;-81
2023/06/27 03:51:05;;;;;;;7.00;1.70;;;15.20;99.90;;;;;;4973677;28;20061;-83
2023/06/27 03:53:32;;;;;;;9.32;1.95;;;15.20;99.90;;;;;;4978451;28;20077;-82
2023/06/27 03:56:01;;;;;;;9.60;1.95;;;15.20;99.90;;;;;;4978110;28;20057;-79
2023/06/27 03:58:30;;;;;;;6.97;1.90;;;15.20;99.90;;;;;;4977484;28;20142;-82
2023/06/27 04:00:57;;;;;;;9.20;1.70;;;15.20;99.90;;;;;;4978264;28;20453;-82
2023/06/27 04:03:24;;;;;;;7.15;1.83;;;15.20;99.90;;;;;;4978461;28;20365;-79
2023/06/27 04:08:22;;;;;;;9.88;1.70;;;15.30;99.90;;;;;;4978113;28;20054;-83
2023/06/27 04:10:49;;;;;;;6.63;1.52;;;15.30;99.90;;;;;;4977137;28;20054;-81
2023/06/27 04:13:15;;;;;;;6.88;1.85;;;15.30;99.90;;;;;;4978865;28;20401;-82
2023/06/27 04:15:42;;;;;;;6.93;1.70;;;15.30;99.90;;;;;;4977893;28;20046;-83
2023/06/27 04:18:12;;;;;;;8.95;2.10;;;15.40;99.90;;;;;;4977072;28;20038;-80
2023/06/27 04:20:39;;;;;;;4.47;1.50;;;15.40;99.90;;;;;;4978883;28;20050;-82
2023/06/27 04:23:06;;;;;;;5.63;1.63;;;15.50;99.90;;;;;;4977817;28;20047;-82
2023/06/27 04:25:35;;;;;;;6.75;1.67;;;15.50;99.90;;;;;;4976683;28;20141;-81
2023/06/27 04:28:04;;;;;;;11.48;1.70;;;15.60;99.90;;;;;;4977943;28;20343;-83
2023/06/27 04:30:30;;;;;;;7.55;1.80;;;15.60;99.90;;;;;;4978958;28;20042;-80
2023/06/27 04:32:57;;;;;;;10.73;1.92;;;15.60;99.90;;;;;;4977691;28;20433;-81
2023/06/27 04:38:14;;;;;;;6.55;1.50;;;15.60;99.90;;;;;;4977619;28;20382;-80
2023/06/27 04:40:44;;;;;;;8.98;1.80;;;15.70;99.90;;;;;;4977174;28;20133;-79
2023/06/27 04:43:11;;;;;;;7.25;1.70;;;15.60;99.90;;;;;;4977562;28;20517;-82
2023/06/27 04:45:38;;;;;;;6.80;1.70;;;15.70;99.90;;;;;;4977319;28;20046;-80
2023/06/27 04:48:06;;;;;;;5.60;1.63;;;15.70;99.90;;;;;;4978292;28;20070;-80
2023/06/27 04:50:35;;;;;;;7.03;1.75;;;15.70;99.90;;;;;;4977329;28;20137;-83
2023/06/27 04:53:05;;;;;;;8.55;2.42;;;15.70;99.90;;;;;;4977574;28;20043;-81
2023/06/27 04:55:33;;;;;;;6.38;1.90;;;15.70;99.90;;;;;;4977789;28;20421;-84
2023/06/27 04:57:59;;;;;;;5.72;1.80;;;15.70;99.90;;;;;;4976804;28;20047;-83
2023/06/27 05:00:26;;;;;;;5.13;1.80;;;15.70;99.90;;;;;;4977898;28;20550;-81
2023/06/27 05:02:53;;;;;;;7.00;1.85;;;15.70;99.90;;;;;;4978064;28;20113;-83
2023/06/27 05:05:20;;;;;;;7.68;1.75;;;15.70;99.90;;;;;;4976757;28;20452;-82
2023/06/27 05:07:46;;;;;;;8.23;1.65;;;15.80;99.90;;;;;;4978090;28;20046;-81
2023/06/27 05:10:13;;;;;;;8.60;2.15;;;15.80;99.90;;;;;;4977847;28;20122;-82
2023/06/27 05:12:40;;;;;;;6.55;1.52;;;15.70;99.90;;;;;;4977169;28;20057;-84
2023/06/27 05:15:07;;;;;;;8.45;2.08;;;15.70;99.90;;;;;;4977501;28;20043;-80
2023/06/27 05:17:33;;;;;;;6.03;1.73;;;15.80;99.90;;;;;;4959894;28;20046;-82
2023/06/27 05:20:00;;;;;;;7.28;1.83;;;15.80;99.90;;;;;;4977668;28;20055;-82
2023/06/27 05:22:27;;;;;;;8.85;1.70;;;15.90;99.90;;;;;;4977835;28;20469;-81
2023/06/27 05:24:55;;;;;;;9.30;2.17;;;15.80;99.90;;;;;;4976486;28;20433;-82
2023/06/27 05:27:21;;;;;;;6.53;1.75;;;15.90;99.90;;;;;;4977399;28;20458;-80
2023/06/27 05:29:48;;;;;;;8.68;1.50;;;15.90;99.90;;;;;;4977809;28;20043;-82
2023/06/27 05:32:15;;;;;;;6.63;1.83;;;16.00;99.90;;;;;;4959886;28;20066;-81
2023/06/27 05:34:43;;;;;;;13.65;2.17;;;16.10;99.90;;;;;;4977265;28;20413;-81
2023/06/27 05:37:12;;;;;;;10.20;2.58;;;16.10;99.90;;;;;;4977445;28;20089;-83
2023/06/27 05:39:38;;;;;;;6.25;1.83;;;16.20;99.90;;;;;;4959483;28;20042;-82
2023/06/27 05:42:05;;;;;;;12.43;2.85;;;16.40;99.90;;;;;;4960393;28;20050;-79
2023/06/27 05:44:34;;;;;;;10.23;2.60;;;16.60;99.90;;;;;;4976325;28;20046;-79
2023/06/27 05:47:01;;;;;;;11.32;2.10;;;16.70;99.90;;;;;;4977234;28;20043;-81
2023/06/27 05:49:27;;;;;;;5.65;1.85;;;16.90;99.90;;;;;;4977348;28;20066;-78
2023/06/27 05:51:54;;;;;;;9.13;2.58;;;17.00;99.90;;;;;;4976122;28;20469;-82
2023/06/27 05:54:21;;;;;;;9.85;1.75;;;17.10;99.90;;;;;;4976999;28;20043;-82
2023/06/27 05:56:47;;;;;;;7.32;1.90;;;17.30;99.90;;;;;;4960289;28;20094;-82
2023/06/27 05:59:14;;;;;;;7.60;1.80;;;17.50;99.90;;;;;;4976111;28;20171;-81
2023/06/27 06:01:41;;;;;;;10.85;2.05;;;17.70;99.90;;;;;;4977258;28;20097;-79
2023/06/27 06:04:08;;;;;;;8.07;2.35;;;17.80;99.90;;;;;;4958966;28;20046;-83
2023/06/27 06:06:38;;;;;;;16.00;2.17;;;17.70;99.90;;;;;;4977008;28;20054;-84
2023/06/27 06:09:05;;;;;;;8.15;2.10;;;17.50;99.90;;;;;;4966156;28;20089;-80
2023/06/27 06:11:36;;;;;;;12.57;2.17;;;17.50;99.90;;;;;;4975266;28;20117;-79
2023/06/27 06:14:03;;;;;;;8.63;2.08;;;17.40;99.90;;;;;;4976526;28;20043;-81
2023/06/27 06:19:15;;;;;;;6.07;1.80;;;17.40;99.90;;;;;;4975733;28;20051;-82
2023/06/27 06:21:42;;;;;;;9.55;2.30;;;17.50;99.90;;;;;;4976637;28;20039;-81
2023/06/27 06:24:08;;;;;;;6.97;1.98;;;17.60;99.90;;;;;;4975539;28;20047;-83
2023/06/27 06:26:35;;;;;;;8.95;2.30;;;17.60;99.90;;;;;;4976530;28;20114;-81
2023/06/27 06:29:02;;;;;;;8.73;1.58;;;17.50;99.90;;;;;;4976540;28;20406;-82
2023/06/27 06:31:29;;;;;;;9.38;2.10;;;17.60;99.90;;;;;;4974678;28;20391;-81
2023/06/27 06:33:57;;;;;;;11.43;1.98;;;17.70;99.90;;;;;;4976108;28;20070;-81
2023/06/27 06:36:26;;;;;;;12.10;2.08;;;17.80;99.90;;;;;;4975491;28;20442;-81
2023/06/27 06:38:53;;;;;;;8.88;2.05;;;17.80;99.90;;;;;;4988010;28;20438;-82
2023/06/27 06:41:20;;;;;;;14.23;2.90;;;17.80;99.90;;;;;;5010781;28;20038;-84
2023/06/27 06:43:47;;;;;;;9.85;1.95;;;17.70;99.90;;;;;;5010624;28;20104;-83
2023/06/27 06:46:14;;;;;;;8.95;2.03;;;17.90;99.90;;;;;;5009709;28;20100;-83
2023/06/27 06:48:41;;;;;;;9.82;2.33;;;17.90;99.90;;;;;;4995593;28;20339;-81
2023/06/27 06:51:08;;;;;;;11.65;1.90;;;18.00;99.90;;;;;;5010104;28;20042;-84
2023/06/27 06:53:34;;;;;;;8.35;2.03;;;18.10;99.90;;;;;;4989715;28;20053;-82
2023/06/27 06:56:03;;;;;;;8.35;1.75;;;18.10;99.90;;;;;;4995464;28;20042;-84
2023/06/27 06:58:29;;;;;;;9.18;2.15;;;18.10;99.90;;;;;;5009457;28;20046;-82
2023/06/27 07:00:56;;;;;;;6.18;1.83;;;18.10;99.90;;;;;;4980212;28;20069;-81
2023/06/27 07:03:23;;;;;;;12.18;2.28;;;18.10;99.90;;;;;;4987330;28;20057;-83
2023/06/27 07:08:36;;;;;;;10.50;2.08;;;18.10;99.90;;;;;;4979086;28;20069;-80
2023/06/27 07:11:03;;;;;;;9.15;2.13;;;18.10;99.90;;;;;;4973771;28;20043;-83
2023/06/27 07:13:29;;;;;;;10.70;2.47;;;18.20;99.90;;;;;;4987394;28;20047;-82
2023/06/27 07:15:58;;;;;;;13.85;2.35;;;18.20;99.90;;;;;;4987074;28;20421;-82
2023/06/27 07:18:25;;;;;;;13.32;2.75;;;18.40;99.90;;;;;;4958222;28;20077;-82
2023/06/27 07:20:51;;;;;;;13.60;2.17;;;18.70;99.90;;;;;;4988437;28;20039;-80
2023/06/27 07:23:18;;;;;;;10.38;2.00;;;18.90;99.90;;;;;;4987929;28;20035;-82
2023/06/27 07:25:47;;;;;;;9.02;1.95;;;19.10;99.90;;;;;;4969987;28;20117;-84
2023/06/27 07:28:14;;;;;;;7.55;2.08;;;19.20;99.90;;;;;;4986038;28;20053;-82
2023/06/27 07:30:45;;;;;;;8.18;1.90;;;19.20;99.90;;;;;;4997301;28;20116;-83
2023/06/27 07:33:12;;;;;;;9.18;2.00;;;19.20;99.90;;;;;;4981768;28;20042;-84
2023/06/27 07:38:27;;;;;;;10.68;2.05;;;19.50;99.90;;;;;;4977984;28;20053;-85
2023/06/27 07:40:54;;;;;;;9.32;2.35;;;19.90;99.90;;;;;;4978707;28;20093;-84
2023/06/27 07:43:23;;;;;;;12.05;2.55;;;20.20;99.90;;;;;;4979285;28;20054;-83
2023/06/27 07:45:51;;;;;;;10.35;2.50;;;20.30;99.90;;;;;;4993338;28;20436;-85
2023/06/27 07:48:18;;;;;;;10.77;2.00;;;20.30;99.90;;;;;;4994639;28;20049;-83
2023/06/27 07:50:45;;;;;;;10.57;2.17;;;20.40;99.90;;;;;;4993210;28;20476;-84
2023/06/27 07:53:11;;;;;;;9.07;1.83;;;20.50;99.90;;;;;;4979045;28;20378;-82
2023/06/27 07:55:38;;;;;;;12.50;2.28;;;20.80;99.90;;;;;;4993991;28;20063;-84
2023/06/27 07:58:05;;;;;;;9.05;2.15;;;21.20;99.90;;;;;;4993662;28;20053;-84
2023/06/27 08:00:33;;;;;;;9.43;3.08;;;21.40;99.90;;;;;;4968665;28;20039;-81
2023/06/27 08:03:00;;;;;;;12.07;2.60;;;21.60;99.90;;;;;;4998631;28;20032;-85
2023/06/27 08:05:31;;;;;;;9.90;2.30;;;21.20;99.90;;;;;;4997243;28;20053;-82
2023/06/27 08:07:59;;;;;;;9.10;2.20;;;21.10;99.90;;;;;;4998046;28;20543;-81
2023/06/27 08:10:27;;;;;;;14.73;3.70;;;21.00;99.90;;;;;;4997798;28;20461;-80
2023/06/27 08:12:55;;;;;;;12.50;2.20;;;21.00;99.90;;;;;;4996611;28;20477;-80
2023/06/27 08:15:23;;;;;;;10.00;2.10;;;21.10;99.90;;;;;;4980306;28;20133;-83
2023/06/27 08:17:50;;;;;;;11.77;2.72;;;21.10;99.90;;;;;;4997428;28;20077;-85
2023/06/27 08:20:18;;;;;;;13.25;2.50;;;21.20;99.90;;;;;;4997831;28;20046;-82
2023/06/27 08:22:45;;;;;;;9.82;2.60;;;21.40;99.90;;;;;;4997678;28;20100;-84
2023/06/27 08:25:13;;;;;;;12.95;2.67;;;21.50;99.90;;;;;;4980126;28;20504;-82
2023/06/27 08:27:40;;;;;;;10.75;2.00;;;21.60;99.90;;;;;;4997835;28;20062;-83
2023/06/27 08:30:07;;;;;;;10.88;2.22;;;21.50;99.90;;;;;;4997531;28;20381;-84
2023/06/27 08:32:34;;;;;;;8.63;1.98;;;21.20;99.90;;;;;;4980075;28;20760;-80
2023/06/27 08:35:05;;;;;;;9.20;2.35;;;21.00;99.90;;;;;;4993760;28;20061;-81
2023/06/27 08:37:32;;;;;;;9.88;2.00;;;21.10;99.90;;;;;;4960417;28;20470;-82
2023/06/27 08:39:59;;;;;;;9.23;1.90;;;21.10;99.90;;;;;;4994803;28;20122;-82
2023/06/27 08:42:27;;;;;;;8.50;2.05;;;21.30;99.90;;;;;;4978229;28;20043;-82
2023/06/27 08:44:54;;;;;;;8.50;1.90;;;21.60;99.90;;;;;;4964881;28;20452;-82
2023/06/27 08:47:21;;;;;;;11.50;2.22;;;21.80;99.90;;;;;;4996315;28;20061;-81
2023/06/27 08:49:48;;;;;;;5.97;1.70;;;22.00;99.90;;;;;;4997238;28;20221;-83
2023/06/27 08:52:15;;;;;;;13.60;1.90;;;21.90;99.90;;;;;;4995131;28;20042;-83
2023/06/27 08:54:44;;;;;;;10.15;2.28;;;22.00;99.90;;;;;;4997432;28;20440;-83
2023/06/27 08:57:11;;;;;;;11.02;2.10;;;22.00;99.90;;;;;;4979673;28;20112;-82
2023/06/27 08:59:38;;;;;;;12.77;2.67;;;21.80;99.90;;;;;;4978000;28;20137;-82
2023/06/27 09:02:05;;;;;;;8.38;2.63;;;21.60;99.90;;;;;;4990883;28;20121;-82
2023/06/27 09:04:32;;;;;;;9.07;2.00;;;21.70;99.90;;;;;;4965521;28;20062;-81
2023/06/27 09:06:59;;;;;;;10.90;2.22;;;22.00;99.90;;;;;;4996615;28;20042;-86
2023/06/27 09:09:26;;;;;;;12.77;2.50;;;22.20;99.90;;;;;;4991077;28;20062;-84
2023/06/27 09:11:52;;;;;;;9.73;2.40;;;22.40;99.90;;;;;;4960045;28;20458;-85
2023/06/27 09:14:19;;;;;;;8.32;2.08;;;22.40;99.90;;;;;;4976773;28;20046;-82
2023/06/27 09:16:46;;;;;;;10.80;2.90;;;22.40;99.90;;;;;;4983848;28;20109;-82
2023/06/27 09:19:13;;;;;;;9.35;2.30;;;22.70;99.90;;;;;;4995785;28;20042;-86
2023/06/27 09:21:39;;;;;;;5.75;1.88;;;22.60;99.90;;;;;;4995998;28;20050;-81
2023/06/27 09:24:06;;;;;;;10.85;2.28;;;23.00;99.90;;;;;;4978664;28;20073;-79
2023/06/27 09:26:35;;;;;;;11.18;2.50;;;23.30;99.90;;;;;;4996224;28;20046;-84
2023/06/27 09:29:02;;;;;;;8.38;2.30;;;23.70;99.90;;;;;;4979887;28;20065;-83
2023/06/27 09:31:29;;;;;;;10.75;2.47;;;23.80;99.90;;;;;;4980099;28;20112;-84
2023/06/27 09:33:56;;;;;;;10.40;2.20;;;23.80;99.90;;;;;;4996813;28;20050;-83
2023/06/27 09:36:27;;;;;;;9.10;2.25;;;23.80;99.90;;;;;;4996703;28;20061;-81
2023/06/27 09:38:56;;;;;;;12.48;2.95;;;23.90;99.90;;;;;;4995877;28;20043;-83
2023/06/27 09:41:23;;;;;;;9.40;2.10;;;23.90;99.90;;;;;;4996786;28;20074;-82
2023/06/27 09:43:50;;;;;;;11.02;2.55;;;23.90;99.90;;;;;;4995662;28;20050;-82
2023/06/27 09:46:18;;;;;;;11.73;2.95;;;24.00;99.90;;;;;;4995038;28;20100;-81
2023/06/27 09:48:44;;;;;;;14.48;2.72;;;23.60;99.90;;;;;;4996096;28;20389;-82
2023/06/27 09:51:11;;;;;;;17.02;2.72;;;23.50;99.90;;;;;;4994655;28;20065;-85
2023/06/27 09:53:38;;;;;;;8.35;2.10;;;23.60;99.90;;;;;;4996406;28;20050;-85
2023/06/27 09:56:06;;;;;;;9.43;3.17;;;23.60;99.90;;;;;;4996392;28;20096;-85
2023/06/27 09:58:33;;;;;;;8.18;2.15;;;23.30;99.90;;;;;;4995349;28;20046;-84
2023/06/27 10:01:00;;;;;;;7.55;2.20;;;23.20;99.90;;;;;;4996463;28;20105;-83
2023/06/27 10:03:27;;;;;;;12.98;2.40;;;23.00;99.90;;;;;;4996529;28;20046;-83
2023/06/27 10:05:55;;;;;;;13.43;2.53;;;22.60;99.90;;;;;;4995222;28;20038;-81
2023/06/27 10:08:37;;;;;;;10.50;2.40;;;22.70;99.90;;;;;;4996198;28;20108;-84
2023/06/27 10:11:03;;;;;;;9.68;2.50;;;22.70;99.90;;;;;;4995454;28;20062;-82
2023/06/27 10:13:30;;;;;;;10.93;3.15;;;23.00;99.90;;;;;;4996300;28;20051;-80
2023/06/27 10:15:59;;;;;;;10.02;2.75;;;23.60;99.90;;;;;;4978974;28;20113;-80
2023/06/27 10:18:26;;;;;;;8.57;2.63;;;23.90;99.90;;;;;;4995334;28;20046;-82
2023/06/27 10:20:52;;;;;;;8.82;2.40;;;24.00;99.90;;;;;;4995911;28;20047;-81
2023/06/27 10:23:19;;;;;;;12.02;2.53;;;23.90;99.90;;;;;;4978750;28;20038;-81
2023/06/27 10:25:48;;;;;;;9.00;2.05;;;23.80;99.90;;;;;;4995120;28;20424;-81
2023/06/27 10:28:15;;;;;;;10.35;2.85;;;24.10;99.90;;;;;;4995839;28;20034;-82
2023/06/27 10:30:42;;;;;;;10.57;3.15;;;24.20;99.90;;;;;;4995203;28;20441;-82
2023/06/27 10:33:09;;;;;;;12.25;2.65;;;24.40;99.90;;;;;;4995993;28;20108;-82
2023/06/27 10:35:36;;;;;;;13.00;3.70;;;24.80;99.90;;;;;;4994746;28;20473;-85
2023/06/27 10:38:03;;;;;;;11.35;2.85;;;25.20;99.90;;;;;;4977831;28;20042;-81
2023/06/27 10:40:31;;;;;;;15.27;2.97;;;25.20;99.90;;;;;;4995853;28;20116;-82
2023/06/27 10:42:58;;;;;;;9.80;3.17;;;25.40;99.90;;;;;;4995731;28;20093;-81
2023/06/27 10:45:26;;;;;;;9.07;2.78;;;24.90;99.90;;;;;;4994825;28;20462;-85
2023/06/27 10:47:53;;;;;;;11.32;3.05;;;24.80;99.90;;;;;;4996344;28;20038;-84
2023/06/27 10:50:20;;;;;;;12.23;3.17;;;25.20;99.90;;;;;;4978977;28;20046;-86
2023/06/27 10:52:47;;;;;;;10.13;3.10;;;25.50;99.90;;;;;;4994194;28;20046;-82
2023/06/27 10:55:18;;;;;;;9.45;3.00;;;25.30;99.90;;;;;;4995389;28;20436;-81
2023/06/27 10:57:45;;;;;;;9.23;2.65;;;24.90;99.90;;;;;;4995086;28;20109;-83
2023/06/27 11:00:13;;;;;;;8.98;2.53;;;25.00;99.90;;;;;;4995626;28;20051;-82
2023/06/27 11:02:40;;;;;;;10.13;2.50;;;25.00;99.90;;;;;;4995183;28;20070;-80
2023/06/27 11:05:16;;;;;;;11.48;2.75;;;25.10;99.90;;;;;;4977454;28;20096;-81
2023/06/27 11:07:43;;;;;;;13.77;2.75;;;25.00;99.90;;;;;;4995562;28;20458;-82
2023/06/27 11:10:09;;;;;;;11.80;2.30;;;25.30;99.90;;;;;;4993774;28;20113;-82
2023/06/27 11:12:36;;;;;;;6.80;2.38;;;25.60;99.90;;;;;;4994668;28;20421;-83
2023/06/27 11:15:05;;;;;;;7.40;2.33;;;25.90;99.90;;;;;;4994448;28;20074;-82
2023/06/27 11:17:35;;;;;;;9.70;2.80;;;26.40;99.90;;;;;;4993730;28;20046;-83
2023/06/27 11:20:02;;;;;;;9.05;2.55;;;26.30;99.50;;;;;;4995216;28;20050;-87
2023/06/27 11:22:29;;;;;;;7.22;2.70;;;26.40;99.90;;;;;;4978098;28;20476;-84
2023/06/27 11:24:58;;;;;;;8.85;2.50;;;26.80;99.90;;;;;;4993370;28;20129;-87
2023/06/27 11:27:25;;;;;;;6.85;2.20;;;27.60;98.60;;;;;;4995243;28;20104;-86
2023/06/27 11:29:51;;;;;;;8.93;2.60;;;27.60;98.30;;;;;;4995095;28;20053;-83
2023/06/27 11:32:18;;;;;;;10.13;2.60;;;27.40;98.10;;;;;;4994748;28;20057;-86
2023/06/27 11:34:45;;;;;;;16.90;2.33;;;26.70;96.20;;;;;;4995135;28;20047;-81
2023/06/27 11:37:12;;;;;;;9.20;2.53;;;26.20;96.50;;;;;;4995060;28;20077;-83
2023/06/27 11:39:39;;;;;;;7.72;2.33;;;26.20;98.50;;;;;;4994247;28;20057;-79
2023/06/27 11:42:05;;;;;;;11.25;2.83;;;26.30;97.30;;;;;;4994770;28;20049;-80
2023/06/27 11:44:32;;;;;;;7.68;2.40;;;26.30;96.60;;;;;;4994129;28;20054;-82
2023/06/27 11:47:00;;;;;;;13.15;2.60;;;26.20;96.40;;;;;;4995286;28;20042;-81
2023/06/27 11:49:27;;;;;;;7.18;2.30;;;26.10;96.40;;;;;;4995575;28;20046;-82
2023/06/27 11:51:54;;;;;;;7.78;2.63;;;26.10;96.60;;;;;;4993260;28;20042;-80
2023/06/27 11:54:21;;;;;;;9.98;2.15;;;26.10;96.00;;;;;;4994678;28;20046;-83
2023/06/27 11:56:48;;;;;;;7.70;2.58;;;26.40;95.40;;;;;;4993695;28;20038;-82
2023/06/27 11:59:14;;;;;;;7.10;2.28;;;26.80;95.90;;;;;;4994264;28;20385;-83
2023/06/27 12:01:41;;;;;;;7.03;2.45;;;27.10;95.80;;;;;;4987876;28;20105;-85
2023/06/27 12:04:08;;;;;;;6.90;2.10;;;27.20;94.50;;;;;;4975297;28;20051;-81
2023/06/27 12:06:35;;;;;;;9.63;2.35;;;27.20;94.90;;;;;;4994012;28;20385;-84
2023/06/27 12:09:02;;;;;;;9.73;2.40;;;27.10;94.90;;;;;;4981562;28;20050;-81
2023/06/27 12:11:29;;;;;;;8.77;2.78;;;26.90;95.30;;;;;;4994334;28;20108;-83
2023/06/27 12:13:55;;;;;;;9.30;2.65;;;26.50;94.60;;;;;;4995058;28;20042;-83
2023/06/27 12:16:22;;;;;;;10.75;2.50;;;26.50;94.20;;;;;;4981450;28;20400;-82
2023/06/27 12:18:49;;;;;;;10.65;2.70;;;27.10;93.80;;;;;;4980283;28;20038;-81
2023/06/27 12:21:16;;;;;;;9.90;2.60;;;27.50;94.00;;;;;;4980905;28;20050;-84
2023/06/27 12:23:43;;;;;;;8.43;2.50;;;27.60;93.30;;;;;;4997678;28;20126;-82
2023/06/27 12:26:09;;;;;;;9.68;2.97;;;27.30;92.60;;;;;;4980232;28;20081;-81
2023/06/27 12:28:36;;;;;;;6.78;2.22;;;27.30;93.30;;;;;;4981301;28;20034;-82
2023/06/27 12:31:03;;;;;;;7.65;2.33;;;27.90;93.10;;;;;;4997305;28;20034;-82
2023/06/27 12:33:30;;;;;;;11.05;2.95;;;28.00;93.80;;;;;;4981150;28;20133;-79
2023/06/27 12:35:57;;;;;;;9.68;3.00;;;28.10;92.60;;;;;;4981044;28;20066;-82
2023/06/27 12:38:24;;;;;;;7.35;2.20;;;27.80;92.90;;;;;;4996938;28;20042;-83
2023/06/27 12:40:51;;;;;;;8.85;2.28;;;27.30;91.80;;;;;;4998024;28;20454;-82
2023/06/27 12:43:18;;;;;;;7.95;2.20;;;27.30;92.50;;;;;;4980188;28;20077;-82
2023/06/27 12:45:44;;;;;;;5.53;2.00;;;26.80;91.50;;;;;;4996796;28;20066;-82
2023/06/27 12:48:11;;;;;;;12.00;2.30;;;27.00;92.70;;;;;;4998057;28;20034;-82
2023/06/27 12:50:38;;;;;;;9.25;2.47;;;27.20;92.40;;;;;;4997019;28;20038;-84
2023/06/27 12:53:05;;;;;;;7.40;2.33;;;26.80;92.20;;;;;;4996725;28;20481;-83
2023/06/27 12:55:34;;;;;;;9.23;2.58;;;27.00;92.10;;;;;;4997787;28;20042;-83